Time;durP1;ratioP1;P1;durP2;ratioP2;P2;SDS_P1;SDS_P2;PMS_P1;PMS_P2;Temp;Humidity;BMP_temperature;BMP_pressure;BME280_temperature;BME280_humidity;BME280_pressure;Samples;Min_cycle;Max_cycle;Signal;HPM_P1;HPM_P2
2023/07/20 00:01:55;;;;;;;;;;;;;;;;;;5327086;28;19908;-75
2023/07/20 00:04:26;;;;;;;;;;;;;;;;;;5326102;28;19916;-75
2023/07/20 00:06:57;;;;;;;;;;;;;;;;;;5327222;28;19926;-75
2023/07/20 00:09:28;;;;;;;;;;;;;;;;;;5326386;28;19943;-75
2023/07/20 00:12:00;;;;;;;;;;;;;;;;;;5327125;28;19950;-75
2023/07/20 00:14:32;;;;;;;;;;;;;;;;;;5326624;28;19925;-75
2023/07/20 00:17:03;;;;;;;;;;;;;;;;;;5326446;28;19903;-75
2023/07/20 00:19:34;;;;;;;;;;;;;;;;;;5326589;28;19903;-75
2023/07/20 00:22:06;;;;;;;;;;;;;;;;;;5327300;28;19899;-75
2023/07/20 00:24:37;;;;;;;;;;;;;;;;;;5325824;28;19952;-75
2023/07/20 00:27:08;;;;;;;;;;;;;;;;;;5327078;28;19926;-75
2023/07/20 00:29:40;;;;;;;;;;;;;;;;;;5326615;28;19903;-75
2023/07/20 00:32:11;;;;;;;;;;;;;;;;;;5326081;28;19915;-75
2023/07/20 00:34:42;;;;;;;;;;;;;;;;;;5326342;28;19994;-75
2023/07/20 00:37:14;;;;;;;;;;;;;;;;;;5327258;28;19920;-75
2023/07/20 00:39:45;;;;;;;;;;;;;;;;;;5325407;28;19908;-75
2023/07/20 00:42:16;;;;;;;;;;;;;;;;;;5326711;28;19904;-74
2023/07/20 00:44:48;;;;;;;;;;;;;;;;;;5324889;28;20348;-74
2023/07/20 00:47:19;;;;;;;;;;;;;;;;;;5326437;28;19955;-74
2023/07/20 00:49:50;;;;;;;;;;;;;;;;;;5325757;28;19930;-75
2023/07/20 00:52:21;;;;;;;;;;;;;;;;;;5325657;28;19915;-74
2023/07/20 00:54:52;;;;;;;;;;;;;;;;;;5325844;28;19986;-74
2023/07/20 00:57:24;;;;;;;;;;;;;;;;;;5326168;28;20002;-75
2023/07/20 00:59:55;;;;;;;;;;;;;;;;;;5325137;28;19943;-74
2023/07/20 01:02:26;;;;;;;;;;;;;;;;;;5325740;28;19910;-74
2023/07/20 01:04:57;;;;;;;;;;;;;;;;;;5325759;28;19952;-74
2023/07/20 01:07:28;;;;;;;;;;;;;;;;;;5325334;28;20325;-74
2023/07/20 01:09:59;;;;;;;;;;;;;;;;;;5325820;28;19904;-75
2023/07/20 01:12:30;;;;;;;;;;;;;;;;;;5325494;28;19907;-75
2023/07/20 01:15:02;;;;;;;;;;;;;;;;;;5325142;28;19926;-75
2023/07/20 01:17:33;;;;;;;;;;;;;;;;;;5325379;28;19904;-75
2023/07/20 01:20:04;;;;;;;;;;;;;;;;;;5324895;28;19904;-75
2023/07/20 01:22:35;;;;;;;;;;;;;;;;;;5324987;28;20011;-75
2023/07/20 01:25:06;;;;;;;;;;;;;;;;;;5326121;28;20286;-74
2023/07/20 01:27:38;;;;;;;;;;;;;;;;;;5324207;28;19908;-74
2023/07/20 01:30:09;;;;;;;;;;;;;;;;;;5325979;28;19904;-74
2023/07/20 01:32:40;;;;;;;;;;;;;;;;;;5324932;28;20393;-75
2023/07/20 01:35:14;;;;;;;;;;;;;;;;;;5324692;28;19904;-75
2023/07/20 01:37:45;;;;;;;;;;;;;;;;;;5324979;28;19925;-74
2023/07/20 01:40:16;;;;;;;;;;;;;;;;;;5325409;28;19907;-74
2023/07/20 01:42:48;;;;;;;;;;;;;;;;;;5323928;28;19915;-74
2023/07/20 01:45:19;;;;;;;;;;;;;;;;;;5325444;28;19903;-74
2023/07/20 01:47:50;;;;;;;;;;;;;;;;;;5323875;28;19903;-75
2023/07/20 01:50:21;;;;;;;;;;;;;;;;;;5325133;28;19903;-74
2023/07/20 01:52:52;;;;;;;;;;;;;;;;;;5324401;28;19934;-74
2023/07/20 01:55:23;;;;;;;;;;;;;;;;;;5324132;28;19911;-75
2023/07/20 01:57:54;;;;;;;;;;;;;;;;;;5323903;28;19903;-75
2023/07/20 02:00:25;;;;;;;;;;;;;;;;;;5324947;28;19903;-75
2023/07/20 02:02:56;;;;;;;;;;;;;;;;;;5323816;28;20004;-74
2023/07/20 02:05:28;;;;;;;;;;;;;;;;;;5325014;28;20323;-75
2023/07/20 02:07:59;;;;;;;;;;;;;;;;;;5324768;28;20006;-75
2023/07/20 02:10:30;;;;;;;;;;;;;;;;;;5323617;28;19903;-75
2023/07/20 02:13:01;;;;;;;;;;;;;;;;;;5324891;28;19907;-74
2023/07/20 02:15:32;;;;;;;;;;;;;;;;;;5324109;28;19908;-75
2023/07/20 02:18:03;;;;;;;;;;;;;;;;;;5324165;28;19911;-74
2023/07/20 02:20:35;;;;;;;;;;;;;;;;;;5324060;28;19899;-75
2023/07/20 02:23:06;;;;;;;;;;;;;;;;;;5323762;28;20408;-75
2023/07/20 02:25:37;;;;;;;;;;;;;;;;;;5323975;28;20362;-75
2023/07/20 02:28:09;;;;;;;;;;;;;;;;;;5324529;28;19904;-75
2023/07/20 02:30:40;;;;;;;;;;;;;;;;;;5323105;28;19908;-75
2023/07/20 02:33:11;;;;;;;;;;;;;;;;;;5324391;28;19970;-75
2023/07/20 02:35:42;;;;;;;;;;;;;;;;;;5323896;28;19904;-74
2023/07/20 02:38:13;;;;;;;;;;;;;;;;;;5323673;28;19946;-75
2023/07/20 02:40:44;;;;;;;;;;;;;;;;;;5323682;28;19935;-75
2023/07/20 02:43:15;;;;;;;;;;;;;;;;;;5324214;28;20019;-75
2023/07/20 02:45:47;;;;;;;;;;;;;;;;;;5323050;28;19991;-75
2023/07/20 02:48:18;;;;;;;;;;;;;;;;;;5324468;28;19915;-75
2023/07/20 02:50:49;;;;;;;;;;;;;;;;;;5323748;28;19907;-75
2023/07/20 02:53:20;;;;;;;;;;;;;;;;;;5323547;28;20015;-75
2023/07/20 02:55:52;;;;;;;;;;;;;;;;;;5323682;28;19957;-75
2023/07/20 02:58:23;;;;;;;;;;;;;;;;;;5323486;28;19903;-75
2023/07/20 03:00:54;;;;;;;;;;;;;;;;;;5323930;28;19904;-74
2023/07/20 03:03:25;;;;;;;;;;;;;;;;;;5323815;28;19919;-75
2023/07/20 03:05:59;;;;;;;;;;;;;;;;;;5323302;28;19911;-74
2023/07/20 03:08:30;;;;;;;;;;;;;;;;;;5326004;28;19911;-74
2023/07/20 03:11:01;;;;;;;;;;;;;;;;;;5328810;28;20300;-74
2023/07/20 03:13:32;;;;;;;;;;;;;;;;;;5327163;28;19907;-75
2023/07/20 03:16:03;;;;;;;;;;;;;;;;;;5328675;28;20278;-74
2023/07/20 03:18:34;;;;;;;;;;;;;;;;;;5327724;28;19910;-75
2023/07/20 03:21:05;;;;;;;;;;;;;;;;;;5327566;28;20339;-75
2023/07/20 03:23:36;;;;;;;;;;;;;;;;;;5327592;28;20266;-74
2023/07/20 03:26:11;;;;;;;;;;;;;;;;;;5328202;28;19904;-75
2023/07/20 03:28:42;;;;;;;;;;;;;;;;;;5326441;28;19911;-74
2023/07/20 03:31:14;;;;;;;;;;;;;;;;;;5327995;28;20278;-74
2023/07/20 03:33:45;;;;;;;;;;;;;;;;;;5326346;28;20004;-74
2023/07/20 03:36:16;;;;;;;;;;;;;;;;;;5327954;28;19965;-74
2023/07/20 03:38:48;;;;;;;;;;;;;;;;;;5327290;28;20274;-74
2023/07/20 03:41:19;;;;;;;;;;;;;;;;;;5327175;28;19949;-74
2023/07/20 03:43:51;;;;;;;;;;;;;;;;;;5327213;28;20002;-74
2023/07/20 03:46:22;;;;;;;;;;;;;;;;;;5327669;28;19937;-74
2023/07/20 03:48:53;;;;;;;;;;;;;;;;;;5326406;28;19904;-74
2023/07/20 03:51:24;;;;;;;;;;;;;;;;;;5327386;28;19994;-75
2023/07/20 03:53:55;;;;;;;;;;;;;;;;;;5327631;28;19904;-74
2023/07/20 03:56:26;;;;;;;;;;;;;;;;;;5326480;28;19946;-74
2023/07/20 03:58:57;;;;;;;;;;;;;;;;;;5327312;28;19908;-74
2023/07/20 04:01:28;;;;;;;;;;;;;;;;;;5326586;28;19907;-75
2023/07/20 04:04:00;;;;;;;;;;;;;;;;;;5327068;28;19911;-74
2023/07/20 04:06:31;;;;;;;;;;;;;;;;;;5326674;28;19957;-75
2023/07/20 04:09:02;;;;;;;;;;;;;;;;;;5326473;28;19900;-74
2023/07/20 04:11:33;;;;;;;;;;;;;;;;;;5326619;28;19911;-74
2023/07/20 04:14:04;;;;;;;;;;;;;;;;;;5327131;28;19906;-74
2023/07/20 04:16:36;;;;;;;;;;;;;;;;;;5325827;28;19939;-74
2023/07/20 04:19:08;;;;;;;;;;;;;;;;;;5326434;28;19942;-74
2023/07/20 04:21:39;;;;;;;;;;;;;;;;;;5326509;28;20012;-74
2023/07/20 04:24:10;;;;;;;;;;;;;;;;;;5326614;28;20261;-74
2023/07/20 04:26:42;;;;;;;;;;;;;;;;;;5326391;28;19907;-75
2023/07/20 04:29:13;;;;;;;;;;;;;;;;;;5327311;28;20414;-75
2023/07/20 04:31:44;;;;;;;;;;;;;;;;;;5325441;28;20389;-74
2023/07/20 04:34:15;;;;;;;;;;;;;;;;;;5326678;28;19911;-73
2023/07/20 04:36:46;;;;;;;;;;;;;;;;;;5325440;28;19966;-76
2023/07/20 04:39:17;;;;;;;;;;;;;;;;;;5326481;28;19904;-73
2023/07/20 04:41:48;;;;;;;;;;;;;;;;;;5326121;28;19930;-73
2023/07/20 04:44:19;;;;;;;;;;;;;;;;;;5325632;28;19981;-74
2023/07/20 04:46:51;;;;;;;;;;;;;;;;;;5325894;28;19929;-74
2023/07/20 04:49:22;;;;;;;;;;;;;;;;;;5326406;28;19910;-73
2023/07/20 04:51:53;;;;;;;;;;;;;;;;;;5325070;28;19903;-74
2023/07/20 04:54:24;;;;;;;;;;;;;;;;;;5326318;28;20002;-74
2023/07/20 04:56:55;;;;;;;;;;;;;;;;;;5325929;28;19904;-74
2023/07/20 04:59:26;;;;;;;;;;;;;;;;;;5325192;28;19907;-74
2023/07/20 05:01:57;;;;;;;;;;;;;;;;;;5325725;28;19904;-75
2023/07/20 05:04:28;;;;;;;;;;;;;;;;;;5325739;28;20273;-75
2023/07/20 05:06:59;;;;;;;;;;;;;;;;;;5324833;28;19904;-74
2023/07/20 05:09:31;;;;;;;;;;;;;;;;;;5325425;28;19904;-75
2023/07/20 05:12:02;;;;;;;;;;;;;;;;;;5325444;28;19903;-74
2023/07/20 05:14:33;;;;;;;;;;;;;;;;;;5325271;28;19900;-74
2023/07/20 05:17:04;;;;;;;;;;;;;;;;;;5325919;28;19904;-75
2023/07/20 05:19:35;;;;;;;;;;;;;;;;;;5324476;28;19953;-74
2023/07/20 05:22:06;;;;;;;;;;;;;;;;;;5325643;28;19929;-74
2023/07/20 05:24:37;;;;;;;;;;;;;;;;;;5325096;28;19958;-74
2023/07/20 05:27:08;;;;;;;;;;;;;;;;;;5324928;28;19943;-74
2023/07/20 05:29:39;;;;;;;;;;;;;;;;;;5325238;28;19955;-74
2023/07/20 05:32:11;;;;;;;;;;;;;;;;;;5325493;28;19947;-74
2023/07/20 05:34:42;;;;;;;;;;;;;;;;;;5324081;28;19949;-74
2023/07/20 05:37:13;;;;;;;;;;;;;;;;;;5325578;28;20338;-75
2023/07/20 05:39:44;;;;;;;;;;;;;;;;;;5324444;28;19948;-74
2023/07/20 05:42:15;;;;;;;;;;;;;;;;;;5324784;28;19954;-74
2023/07/20 05:44:48;;;;;;;;;;;;;;;;;;5324935;28;19915;-74
2023/07/20 05:47:19;;;;;;;;;;;;;;;;;;5324614;28;19907;-74
2023/07/20 05:49:50;;;;;;;;;;;;;;;;;;5324439;28;19919;-74
2023/07/20 05:52:21;;;;;;;;;;;;;;;;;;5325081;28;20357;-74
2023/07/20 05:54:52;;;;;;;;;;;;;;;;;;5323435;28;20045;-75
2023/07/20 05:57:23;;;;;;;;;;;;;;;;;;5324890;28;20311;-74
2023/07/20 05:59:54;;;;;;;;;;;;;;;;;;5324685;28;19904;-74
2023/07/20 06:02:25;;;;;;;;;;;;;;;;;;5323841;28;19911;-74
2023/07/20 06:04:56;;;;;;;;;;;;;;;;;;5324484;28;19908;-75
2023/07/20 06:07:28;;;;;;;;;;;;;;;;;;5324673;28;19903;-75
2023/07/20 06:09:59;;;;;;;;;;;;;;;;;;5323949;28;19971;-75
2023/07/20 06:12:30;;;;;;;;;;;;;;;;;;5324293;28;19935;-75
2023/07/20 06:15:02;;;;;;;;;;;;;;;;;;5324190;28;19923;-75
2023/07/20 06:17:33;;;;;;;;;;;;;;;;;;5323551;28;19903;-74
2023/07/20 06:20:04;;;;;;;;;;;;;;;;;;5324111;28;19986;-76
2023/07/20 06:22:35;;;;;;;;;;;;;;;;;;5298807;28;19908;-75
2023/07/20 06:25:06;;;;;;;;;;;;;;;;;;5301109;28;19957;-75
2023/07/20 06:27:37;;;;;;;;;;;;;;;;;;5301538;28;19915;-76
2023/07/20 06:30:08;;;;;;;;;;;;;;;;;;5335765;27;19907;-74
2023/07/20 06:32:39;;;;;;;;;;;;;;;;;;5343956;27;20006;-75
2023/07/20 06:35:11;;;;;;;;;;;;;;;;;;5344809;27;19908;-74
2023/07/20 06:37:42;;;;;;;;;;;;;;;;;;5343023;27;19907;-74
2023/07/20 06:40:13;;;;;;;;;;;;;;;;;;5345048;27;20238;-75
2023/07/20 06:42:44;;;;;;;;;;;;;;;;;;5344917;27;19915;-75
2023/07/20 06:45:16;;;;;;;;;;;;;;;;;;5343990;27;19903;-76
2023/07/20 06:47:47;;;;;;;;;;;;;;;;;;5343815;28;19904;-75
2023/07/20 06:50:18;;;;;;;;;;;;;;;;;;5344883;28;19956;-77
2023/07/20 06:52:49;;;;;;;;;;;;;;;;;;5308012;28;19908;-75
2023/07/20 06:55:21;;;;;;;;;;;;;;;;;;5302764;28;19904;-75
2023/07/20 06:57:52;;;;;;;;;;;;;;;;;;5301923;28;19908;-76
2023/07/20 07:00:23;;;;;;;;;;;;;;;;;;5303064;28;19987;-76
2023/07/20 07:02:54;;;;;;;;;;;;;;;;;;5302612;28;19908;-76
2023/07/20 07:05:25;;;;;;;;;;;;;;;;;;5300594;28;19911;-75
2023/07/20 07:07:56;;;;;;;;;;;;;;;;;;5302557;28;19983;-76
2023/07/20 07:10:28;;;;;;;;;;;;;;;;;;5302878;28;19912;-75
2023/07/20 07:13:00;;;;;;;;;;;;;;;;;;5302094;28;19918;-75
2023/07/20 07:15:31;;;;;;;;;;;;;;;;;;5302483;28;19912;-75
2023/07/20 07:18:03;;;;;;;;;;;;;;;;;;5303296;28;19908;-75
2023/07/20 07:20:34;;;;;;;;;;;;;;;;;;5301963;28;19904;-77
2023/07/20 07:23:05;;;;;;;;;;;;;;;;;;5302781;28;19912;-75
2023/07/20 07:25:36;;;;;;;;;;;;;;;;;;5301593;28;19904;-75
2023/07/20 07:28:07;;;;;;;;;;;;;;;;;;5302827;28;19904;-75
2023/07/20 07:30:38;;;;;;;;;;;;;;;;;;5301936;28;20374;-74
2023/07/20 07:33:09;;;;;;;;;;;;;;;;;;5300716;28;20011;-74
2023/07/20 07:35:41;;;;;;;;;;;;;;;;;;5301537;28;20052;-75
2023/07/20 07:38:12;;;;;;;;;;;;;;;;;;5302260;28;20274;-74
2023/07/20 07:40:43;;;;;;;;;;;;;;;;;;5299934;28;19908;-74
2023/07/20 07:43:14;;;;;;;;;;;;;;;;;;5301852;28;19912;-74
2023/07/20 07:45:45;;;;;;;;;;;;;;;;;;5300898;28;20256;-75
2023/07/20 07:48:17;;;;;;;;;;;;;;;;;;5300780;28;19904;-75
2023/07/20 07:50:49;;;;;;;;;;;;;;;;;;5316509;28;19912;-74
2023/07/20 07:53:21;;;;;;;;;;;;;;;;;;5323526;28;19941;-75
2023/07/20 07:55:52;;;;;;;;;;;;;;;;;;5325732;28;20079;-76
2023/07/20 07:58:23;;;;;;;;;;;;;;;;;;5327240;28;19904;-76
2023/07/20 08:00:54;;;;;;;;;;;;;;;;;;5327089;28;19904;-76
2023/07/20 08:03:26;;;;;;;;;;;;;;;;;;5327311;28;19933;-75
2023/07/20 08:05:58;;;;;;;;;;;;;;;;;;5327773;28;19904;-76
2023/07/20 08:08:29;;;;;;;;;;;;;;;;;;5326425;28;19925;-75
2023/07/20 08:11:00;;;;;;;;;;;;;;;;;;5327075;28;19907;-75
2023/07/20 08:13:32;;;;;;;;;;;;;;;;;;5326721;28;19900;-74
2023/07/20 08:16:03;;;;;;;;;;;;;;;;;;5326577;28;19903;-75
2023/07/20 08:18:34;;;;;;;;;;;;;;;;;;5326521;28;20002;-75
2023/07/20 08:21:06;;;;;;;;;;;;;;;;;;5326599;28;19911;-75
2023/07/20 08:23:37;;;;;;;;;;;;;;;;;;5325302;28;19912;-75
2023/07/20 08:26:08;;;;;;;;;;;;;;;;;;5327076;28;19949;-76
2023/07/20 08:28:39;;;;;;;;;;;;;;;;;;5326155;28;20309;-76
2023/07/20 08:31:10;;;;;;;;;;;;;;;;;;5326147;28;19991;-75
2023/07/20 08:33:41;;;;;;;;;;;;;;;;;;5326329;28;19912;-75
2023/07/20 08:36:12;;;;;;;;;;;;;;;;;;5326029;28;19904;-76
2023/07/20 08:38:43;;;;;;;;;;;;;;;;;;5326128;28;19951;-75
2023/07/20 08:41:14;;;;;;;;;;;;;;;;;;5326986;28;20393;-76
2023/07/20 08:43:46;;;;;;;;;;;;;;;;;;5325254;28;19965;-76
2023/07/20 08:46:17;;;;;;;;;;;;;;;;;;5326463;28;20374;-77
2023/07/20 08:48:48;;;;;;;;;;;;;;;;;;5325943;28;19915;-74
2023/07/20 08:51:20;;;;;;;;;;;;;;;;;;5325733;28;20018;-73
2023/07/20 08:53:51;;;;;;;;;;;;;;;;;;5325862;28;19998;-73
2023/07/20 08:56:22;;;;;;;;;;;;;;;;;;5325132;28;19957;-73
2023/07/20 08:58:53;;;;;;;;;;;;;;;;;;5323021;28;19907;-74
2023/07/20 09:01:24;;;;;;;;;;;;;;;;;;5324128;28;20282;-75
2023/07/20 09:03:55;;;;;;;;;;;;;;;;;;5323172;28;19912;-75
2023/07/20 09:06:26;;;;;;;;;;;;;;;;;;5323896;28;19904;-75
2023/07/20 09:08:57;;;;;;;;;;;;;;;;;;5323722;28;19906;-72
2023/07/20 09:11:28;;;;;;;;;;;;;;;;;;5324193;28;19915;-75
2023/07/20 09:14:00;;;;;;;;;;;;;;;;;;5326022;28;19899;-75
2023/07/20 09:16:31;;;;;;;;;;;;;;;;;;5325639;28;20002;-75
2023/07/20 09:19:02;;;;;;;;;;;;;;;;;;5325598;28;19910;-75
2023/07/20 09:21:33;;;;;;;;;;;;;;;;;;5325595;28;19901;-73
2023/07/20 09:24:04;;;;;;;;;;;;;;;;;;5325906;28;19912;-73
2023/07/20 09:26:35;;;;;;;;;;;;;;;;;;5324772;28;19903;-74
2023/07/20 09:29:06;;;;;;;;;;;;;;;;;;5325855;28;20365;-73
2023/07/20 09:31:39;;;;;;;;;;;;;;;;;;5324974;28;19923;-73
2023/07/20 09:34:10;;;;;;;;;;;;;;;;;;5325324;28;19903;-73
2023/07/20 09:36:41;;;;;;;;;;;;;;;;;;5325161;28;19911;-73
2023/07/20 09:39:13;;;;;;;;;;;;;;;;;;5325007;28;19903;-73
2023/07/20 09:41:44;;;;;;;;;;;;;;;;;;5324981;28;19908;-74
2023/07/20 09:44:15;;;;;;;;;;;;;;;;;;5325573;28;20290;-74
2023/07/20 09:46:46;;;;;;;;;;;;;;;;;;5324225;28;19911;-74
2023/07/20 09:49:17;;;;;;;;;;;;;;;;;;5325460;28;19991;-74
2023/07/20 09:51:48;;;;;;;;;;;;;;;;;;5324847;28;20359;-74
2023/07/20 09:54:19;;;;;;;;;;;;;;;;;;5324542;28;19907;-74
2023/07/20 09:56:50;;;;;;;;;;;;;;;;;;5324751;28;20381;-73
2023/07/20 09:59:21;;;;;;;;;;;;;;;;;;5325269;28;19910;-74
2023/07/20 10:01:53;;;;;;;;;;;;;;;;;;5323956;28;19903;-73
2023/07/20 10:04:24;;;;;;;;;;;;;;;;;;5324675;28;19990;-73
2023/07/20 10:06:55;;;;;;;;;;;;;;;;;;5324784;28;19956;-74
2023/07/20 10:09:27;;;;;;;;;;;;;;;;;;5324081;28;20300;-74
2023/07/20 10:11:58;;;;;;;;;;;;;;;;;;5324662;28;19915;-74
2023/07/20 10:14:30;;;;;;;;;;;;;;;;;;5323691;28;20683;-74
2023/07/20 10:17:02;;;;;;;;;;;;;;;;;;5324383;28;19904;-74
2023/07/20 10:19:33;;;;;;;;;;;;;;;;;;5324257;28;19911;-74
2023/07/20 10:22:04;;;;;;;;;;;;;;;;;;5324037;28;19900;-74
2023/07/20 10:24:35;;;;;;;;;;;;;;;;;;5324147;28;20383;-74
2023/07/20 10:27:06;;;;;;;;;;;;;;;;;;5324609;28;19925;-74
2023/07/20 10:29:37;;;;;;;;;;;;;;;;;;5323105;28;20396;-74
2023/07/20 10:32:08;;;;;;;;;;;;;;;;;;5324780;28;19916;-77
2023/07/20 10:34:39;;;;;;;;;;;;;;;;;;5323969;28;20377;-73
2023/07/20 10:37:10;;;;;;;;;;;;;;;;;;5323892;28;19904;-72
2023/07/20 10:39:41;;;;;;;;;;;;;;;;;;5323936;28;20320;-72
2023/07/20 10:42:12;;;;;;;;;;;;;;;;;;5324443;28;19904;-72
2023/07/20 10:44:44;;;;;;;;;;;;;;;;;;5323203;28;20324;-72
2023/07/20 10:47:15;;;;;;;;;;;;;;;;;;5324433;28;19904;-73
2023/07/20 10:49:46;;;;;;;;;;;;;;;;;;5323094;28;20409;-72
2023/07/20 10:52:17;;;;;;;;;;;;;;;;;;5324343;28;19946;-73
2023/07/20 10:54:48;;;;;;;;;;;;;;;;;;5323928;28;19991;-73
2023/07/20 10:57:19;;;;;;;;;;;;;;;;;;5323707;28;19910;-72
2023/07/20 10:59:51;;;;;;;;;;;;;;;;;;5323877;28;20263;-72
2023/07/20 11:02:22;;;;;;;;;;;;;;;;;;5324317;28;19910;-72
2023/07/20 11:04:54;;;;;;;;;;;;;;;;;;5322911;28;20273;-73
2023/07/20 11:07:26;;;;;;;;;;;;;;;;;;5324108;28;20354;-72
2023/07/20 11:09:57;;;;;;;;;;;;;;;;;;5324251;28;19919;-72
2023/07/20 11:12:28;;;;;;;;;;;;;;;;;;5323297;28;20369;-75
2023/07/20 11:14:59;;;;;;;;;;;;;;;;;;5323801;28;19907;-72
2023/07/20 11:17:31;;;;;;;;;;;;;;;;;;5323134;28;19929;-73
2023/07/20 11:20:02;;;;;;;;;;;;;;;;;;5323901;28;19908;-72
2023/07/20 11:22:33;;;;;;;;;;;;;;;;;;5323359;28;20324;-73
2023/07/20 11:25:05;;;;;;;;;;;;;;;;;;5323328;28;19961;-72
2023/07/20 11:27:36;;;;;;;;;;;;;;;;;;5323271;28;19964;-72
2023/07/20 11:30:07;;;;;;;;;;;;;;;;;;5327209;28;19903;-72
2023/07/20 11:32:38;;;;;;;;;;;;;;;;;;5326818;28;19922;-72
2023/07/20 11:35:09;;;;;;;;;;;;;;;;;;5327975;28;19914;-72
2023/07/20 11:37:40;;;;;;;;;;;;;;;;;;5327509;28;19911;-73
2023/07/20 11:40:11;;;;;;;;;;;;;;;;;;5327255;28;19903;-70
2023/07/20 11:42:42;;;;;;;;;;;;;;;;;;5327409;28;19938;-70
2023/07/20 11:45:14;;;;;;;;;;;;;;;;;;5327940;28;19952;-70
2023/07/20 11:47:45;;;;;;;;;;;;;;;;;;5326533;28;19915;-71
2023/07/20 11:50:16;;;;;;;;;;;;;;;;;;5327650;28;19904;-70
2023/07/20 11:52:47;;;;;;;;;;;;;;;;;;5326249;28;19911;-70
2023/07/20 11:55:18;;;;;;;;;;;;;;;;;;5327614;28;19990;-70
2023/07/20 11:57:49;;;;;;;;;;;;;;;;;;5325819;28;19907;-70
2023/07/20 12:00:21;;;;;;;;;;;;;;;;;;5303897;28;19925;-69
2023/07/20 12:02:52;;;;;;;;;;;;;;;;;;5305269;28;19904;-69
2023/07/20 12:05:23;;;;;;;;;;;;;;;;;;5305731;28;20121;-70
2023/07/20 12:07:54;;;;;;;;;;;;;;;;;;5304609;28;19908;-70
2023/07/20 12:10:26;;;;;;;;;;;;;;;;;;5305502;28;19904;-70
2023/07/20 12:12:57;;;;;;;;;;;;;;;;;;5304316;28;19910;-69
2023/07/20 12:15:31;;;;;;;;;;;;;;;;;;5304995;28;19947;-69
2023/07/20 12:18:02;;;;;;;;;;;;;;;;;;5306326;28;20368;-70
2023/07/20 12:20:37;;;;;;;;;;;;;;;;;;5305600;28;19904;-70
2023/07/20 12:23:08;;;;;;;;;;;;;;;;;;5305028;28;19965;-71
2023/07/20 12:25:40;;;;;;;;;;;;;;;;;;5305175;28;20324;-70
2023/07/20 12:28:11;;;;;;;;;;;;;;;;;;5287362;28;20000;-70
2023/07/20 12:30:42;;;;;;;;;;;;;;;;;;5305215;28;20210;-69
2023/07/20 12:33:15;;;;;;;;;;;;;;;;;;5305501;28;19916;-70
2023/07/20 12:35:46;;;;;;;;;;;;;;;;;;5304377;28;20363;-71
2023/07/20 12:38:17;;;;;;;;;;;;;;;;;;5305584;28;19904;-73
2023/07/20 12:40:49;;;;;;;;;;;;;;;;;;5304048;28;20378;-73
2023/07/20 12:43:21;;;;;;;;;;;;;;;;;;5304851;28;19912;-73
2023/07/20 12:45:52;;;;;;;;;;;;;;;;;;5304735;28;19904;-73
2023/07/20 12:48:23;;;;;;;;;;;;;;;;;;5305187;28;20006;-73
2023/07/20 12:50:54;;;;;;;;;;;;;;;;;;5304274;28;19965;-74
2023/07/20 12:53:26;;;;;;;;;;;;;;;;;;5304935;28;19950;-73
2023/07/20 12:55:57;;;;;;;;;;;;;;;;;;5304811;28;20278;-73
2023/07/20 12:58:28;;;;;;;;;;;;;;;;;;5298885;28;19908;-73
2023/07/20 13:00:59;;;;;;;;;;;;;;;;;;5312499;28;20436;-74
2023/07/20 13:03:30;;;;;;;;;;;;;;;;;;5302553;28;19929;-74
2023/07/20 13:06:01;;;;;;;;;;;;;;;;;;5303943;28;19911;-72
2023/07/20 13:08:32;;;;;;;;;;;;;;;;;;5303068;28;19911;-73
2023/07/20 13:11:04;;;;;;;;;;;;;;;;;;5310526;28;19908;-71
2023/07/20 13:13:39;;;;;;;;;;;;;;;;;;5303926;28;19911;-74
2023/07/20 13:16:10;;;;;;;;;;;;;;;;;;5325352;28;20364;-74
2023/07/20 13:18:41;;;;;;;;;;;;;;;;;;5341508;27;19907;-74
2023/07/20 13:21:12;;;;;;;;;;;;;;;;;;5346232;27;20010;-74
2023/07/20 13:23:43;;;;;;;;;;;;;;;;;;5345794;27;19918;-74
2023/07/20 13:26:14;;;;;;;;;;;;;;;;;;5345123;27;19911;-74
2023/07/20 13:28:46;;;;;;;;;;;;;;;;;;5346115;27;20279;-75
2023/07/20 13:31:17;;;;;;;;;;;;;;;;;;5345019;27;20009;-74
2023/07/20 13:33:48;;;;;;;;;;;;;;;;;;5345794;27;19911;-75
2023/07/20 13:36:20;;;;;;;;;;;;;;;;;;5346194;27;19948;-75
2023/07/20 13:38:51;;;;;;;;;;;;;;;;;;5344672;27;19904;-74
2023/07/20 13:41:23;;;;;;;;;;;;;;;;;;5345800;27;19922;-75
2023/07/20 13:43:54;;;;;;;;;;;;;;;;;;5345267;27;19923;-75
2023/07/20 13:46:25;;;;;;;;;;;;;;;;;;5345473;27;19903;-75
2023/07/20 13:48:56;;;;;;;;;;;;;;;;;;5345753;27;19923;-75
2023/07/20 13:51:27;;;;;;;;;;;;;;;;;;5344635;27;19998;-74
2023/07/20 13:53:59;;;;;;;;;;;;;;;;;;5344066;27;20342;-74
2023/07/20 13:56:31;;;;;;;;;;;;;;;;;;5345368;27;19903;-75
2023/07/20 13:59:02;;;;;;;;;;;;;;;;;;5345763;27;19951;-74
2023/07/20 14:01:34;;;;;;;;;;;;;;;;;;5343701;27;19979;-75
2023/07/20 14:04:05;;;;;;;;;;;;;;;;;;5345852;27;20254;-75
2023/07/20 14:06:36;;;;;;;;;;;;;;;;;;5344486;27;20694;-75
2023/07/20 14:09:07;;;;;;;;;;;;;;;;;;5345154;27;19918;-73
2023/07/20 14:11:38;;;;;;;;;;;;;;;;;;5344605;27;20384;-74
2023/07/20 14:14:09;;;;;;;;;;;;;;;;;;5344842;27;19903;-74
2023/07/20 14:16:41;;;;;;;;;;;;;;;;;;5345127;27;19903;-74
2023/07/20 14:19:12;;;;;;;;;;;;;;;;;;5345509;27;19949;-75
2023/07/20 14:21:44;;;;;;;;;;;;;;;;;;5344012;27;19977;-74
2023/07/20 14:24:15;;;;;;;;;;;;;;;;;;5344890;27;19911;-73
2023/07/20 14:26:48;;;;;;;;;;;;;;;;;;5344514;27;19911;-75
2023/07/20 14:29:19;;;;;;;;;;;;;;;;;;5344561;27;20346;-73
2023/07/20 14:31:52;;;;;;;;;;;;;;;;;;5344409;27;20010;-74
2023/07/20 14:34:23;;;;;;;;;;;;;;;;;;5344691;27;19904;-74
2023/07/20 14:36:54;;;;;;;;;;;;;;;;;;5344437;27;19960;-74
2023/07/20 14:39:25;;;;;;;;;;;;;;;;;;5344617;27;19907;-74
2023/07/20 14:41:57;;;;;;;;;;;;;;;;;;5344049;27;19903;-74
2023/07/20 14:44:28;;;;;;;;;;;;;;;;;;5344677;27;19968;-74
2023/07/20 14:46:59;;;;;;;;;;;;;;;;;;5344729;27;19907;-74
2023/07/20 14:49:30;;;;;;;;;;;;;;;;;;5343767;27;20381;-75
2023/07/20 14:52:01;;;;;;;;;;;;;;;;;;5344858;28;19943;-75
2023/07/20 14:54:32;;;;;;;;;;;;;;;;;;5332714;28;19954;-75
2023/07/20 14:57:04;;;;;;;;;;;;;;;;;;5301876;28;19995;-75
2023/07/20 14:59:35;;;;;;;;;;;;;;;;;;5301473;28;20003;-75
2023/07/20 15:02:06;;;;;;;;;;;;;;;;;;5302096;28;19904;-75
2023/07/20 15:04:37;;;;;;;;;;;;;;;;;;5303445;28;19985;-75
2023/07/20 15:07:09;;;;;;;;;;;;;;;;;;5306861;28;19958;-75
2023/07/20 15:09:40;;;;;;;;;;;;;;;;;;5305122;28;20320;-75
2023/07/20 15:12:11;;;;;;;;;;;;;;;;;;5306519;28;19904;-75
2023/07/20 15:14:42;;;;;;;;;;;;;;;;;;5305971;28;19909;-75
2023/07/20 15:17:13;;;;;;;;;;;;;;;;;;5305705;28;19904;-75
2023/07/20 15:19:44;;;;;;;;;;;;;;;;;;5305842;28;19904;-75
2023/07/20 15:22:15;;;;;;;;;;;;;;;;;;5306404;28;19904;-75
2023/07/20 15:24:46;;;;;;;;;;;;;;;;;;5304717;28;19912;-75
2023/07/20 15:27:18;;;;;;;;;;;;;;;;;;5306057;28;19908;-75
2023/07/20 15:29:49;;;;;;;;;;;;;;;;;;5305178;28;20247;-75
2023/07/20 15:32:20;;;;;;;;;;;;;;;;;;5305347;28;20377;-75
2023/07/20 15:34:51;;;;;;;;;;;;;;;;;;5305362;28;19904;-74
2023/07/20 15:37:22;;;;;;;;;;;;;;;;;;5306109;28;19916;-73
2023/07/20 15:39:53;;;;;;;;;;;;;;;;;;5304279;28;19908;-75
2023/07/20 15:42:24;;;;;;;;;;;;;;;;;;5305548;28;19904;-74
2023/07/20 15:44:56;;;;;;;;;;;;;;;;;;5304627;28;19919;-75
2023/07/20 15:47:27;;;;;;;;;;;;;;;;;;5305533;28;19931;-73
2023/07/20 15:49:58;;;;;;;;;;;;;;;;;;5305123;28;19970;-74
2023/07/20 15:52:29;;;;;;;;;;;;;;;;;;5304854;28;19908;-74
2023/07/20 15:55:00;;;;;;;;;;;;;;;;;;5305097;28;20335;-76
2023/07/20 15:57:31;;;;;;;;;;;;;;;;;;5305592;28;19953;-74
2023/07/20 16:00:03;;;;;;;;;;;;;;;;;;5346199;27;19903;-73
2023/07/20 16:02:34;;;;;;;;;;;;;;;;;;5347978;27;19903;-73
2023/07/20 16:05:06;;;;;;;;;;;;;;;;;;5347941;27;19963;-73
2023/07/20 16:07:37;;;;;;;;;;;;;;;;;;5346608;27;20298;-73
2023/07/20 16:10:09;;;;;;;;;;;;;;;;;;5348014;27;20497;-73
2023/07/20 16:12:41;;;;;;;;;;;;;;;;;;5347384;27;20314;-73
2023/07/20 16:15:13;;;;;;;;;;;;;;;;;;5345791;27;20035;-73
2023/07/20 16:17:44;;;;;;;;;;;;;;;;;;5347153;27;20413;-73
2023/07/20 16:20:15;;;;;;;;;;;;;;;;;;5347111;27;20431;-73
2023/07/20 16:22:46;;;;;;;;;;;;;;;;;;5346908;27;19952;-74
2023/07/20 16:25:17;;;;;;;;;;;;;;;;;;5327150;27;19915;-74
2023/07/20 16:27:48;;;;;;;;;;;;;;;;;;5303972;28;19919;-74
2023/07/20 16:30:20;;;;;;;;;;;;;;;;;;5304779;28;19929;-74
2023/07/20 16:32:51;;;;;;;;;;;;;;;;;;5303882;28;19978;-74
2023/07/20 16:35:22;;;;;;;;;;;;;;;;;;5304124;28;20448;-73
2023/07/20 16:37:53;;;;;;;;;;;;;;;;;;5303738;28;19979;-73
2023/07/20 16:40:24;;;;;;;;;;;;;;;;;;5304230;28;19904;-74
2023/07/20 16:42:55;;;;;;;;;;;;;;;;;;5303973;28;20293;-74
2023/07/20 16:45:26;;;;;;;;;;;;;;;;;;5304387;28;20354;-74
2023/07/20 16:47:57;;;;;;;;;;;;;;;;;;5304317;28;19915;-75
2023/07/20 16:50:28;;;;;;;;;;;;;;;;;;5303870;28;19904;-75
2023/07/20 16:53:00;;;;;;;;;;;;;;;;;;5304603;28;19915;-74
2023/07/20 16:55:31;;;;;;;;;;;;;;;;;;5303333;28;20316;-76
2023/07/20 16:58:02;;;;;;;;;;;;;;;;;;5304460;28;19904;-74
2023/07/20 17:00:33;;;;;;;;;;;;;;;;;;5303952;28;20271;-76
2023/07/20 17:03:04;;;;;;;;;;;;;;;;;;5304138;28;19912;-76
2023/07/20 17:05:35;;;;;;;;;;;;;;;;;;5303799;28;19904;-76
2023/07/20 17:08:06;;;;;;;;;;;;;;;;;;5303845;28;19906;-75
2023/07/20 17:10:37;;;;;;;;;;;;;;;;;;5302554;28;19911;-75
2023/07/20 17:13:10;;;;;;;;;;;;;;;;;;5304520;28;20298;-75